Time;durP1;ratioP1;P1;durP2;ratioP2;P2;SDS_P1;SDS_P2;PMS_P1;PMS_P2;Temp;Humidity;BMP_temperature;BMP_pressure;BME280_temperature;BME280_humidity;BME280_pressure;Samples;Min_cycle;Max_cycle;Signal;HPM_P1;HPM_P2
2021/12/24 00:01:24;;;;;;;50.13;38.23;;;13.70;73.10;;;;;;5124904;29;19961;-31
2021/12/24 00:03:55;;;;;;;48.93;37.63;;;13.70;73.20;;;;;;5109415;29;20074;-32
2021/12/24 00:06:25;;;;;;;47.07;37.93;;;13.60;73.40;;;;;;5125074;29;20152;-32
2021/12/24 00:08:57;;;;;;;51.83;39.83;;;13.70;73.50;;;;;;5172241;28;20084;-30
2021/12/24 00:11:27;;;;;;;47.53;38.50;;;13.60;73.30;;;;;;5206844;28;20057;-31
2021/12/24 00:14:00;;;;;;;48.67;37.10;;;13.60;73.20;;;;;;5206401;28;20483;-31
2021/12/24 00:17:05;;;;;;;47.88;37.55;;;13.60;73.20;;;;;;5207865;28;20048;-31
2021/12/24 00:19:49;;;;;;;47.87;38.23;;;13.60;73.20;;;;;;5207565;28;20547;-31
2021/12/24 00:36:10;;;;;;;49.27;38.17;;;13.50;73.50;;;;;;5207750;28;20045;-30
2021/12/24 00:38:41;;;;;;;47.50;38.13;;;13.50;73.50;;;;;;5207573;28;20049;-31
2021/12/24 00:41:13;;;;;;;47.87;38.23;;;13.50;73.60;;;;;;5206283;28;20451;-31
2021/12/24 00:43:44;;;;;;;45.37;36.20;;;13.50;73.70;;;;;;5207713;28;20046;-31
2021/12/24 00:46:15;;;;;;;45.43;37.03;;;13.50;73.70;;;;;;5207428;28;20116;-32
2021/12/24 00:48:46;;;;;;;48.03;37.73;;;13.50;73.80;;;;;;5207363;28;20128;-30
2021/12/24 00:51:23;;;;;;;47.53;36.40;;;13.50;73.80;;;;;;5207359;28;20041;-31
2021/12/24 00:56:25;;;;;;;44.73;35.57;;;13.50;73.90;;;;;;5206995;28;20045;-31
2021/12/24 00:58:56;;;;;;;47.93;38.27;;;13.50;73.90;;;;;;5207279;28;20045;-32
2021/12/24 01:01:27;;;;;;;44.87;36.30;;;13.50;73.90;;;;;;5206721;28;20053;-32
2021/12/24 01:03:58;;;;;;;45.47;36.27;;;13.50;74.00;;;;;;5207134;28;20053;-31
2021/12/24 01:06:30;;;;;;;46.37;38.03;;;13.40;73.90;;;;;;5206614;28;20045;-32
2021/12/24 01:09:00;;;;;;;43.10;35.53;;;13.50;74.10;;;;;;5207084;28;20041;-32
2021/12/24 01:11:32;;;;;;;46.47;36.63;;;13.40;74.00;;;;;;5210409;28;20041;-30
2021/12/24 01:14:03;;;;;;;44.37;36.70;;;13.50;74.20;;;;;;5210630;28;20570;-32
2021/12/24 01:16:44;;;;;;;44.67;36.07;;;13.40;74.30;;;;;;5210613;28;20083;-30
2021/12/24 01:19:20;;;;;;;43.13;35.97;;;13.40;74.40;;;;;;5211100;28;20091;-31
2021/12/24 01:25:21;;;;;;;43.83;35.07;;;13.40;74.80;;;;;;5148494;28;20560;-31
2021/12/24 01:39:06;;;;;;;47.17;36.53;;;13.40;75.00;;;;;;5168184;28;20065;-31
2021/12/24 01:44:27;;;;;;;41.60;34.50;;;13.40;74.90;;;;;;5154332;28;20133;-32
2021/12/24 01:46:59;;;;;;;47.60;37.93;;;13.40;75.00;;;;;;5151722;28;20505;-32
2021/12/24 01:49:31;;;;;;;48.23;38.00;;;13.40;74.90;;;;;;5167900;28;20063;-31
2021/12/24 01:52:03;;;;;;;44.70;36.83;;;13.40;75.00;;;;;;5167656;28;20450;-31
2021/12/24 01:54:34;;;;;;;43.13;35.13;;;13.40;74.90;;;;;;5167523;28;20090;-30
2021/12/24 01:57:06;;;;;;;43.73;36.00;;;13.40;75.00;;;;;;5151239;28;20046;-31
2021/12/24 01:59:37;;;;;;;46.10;36.27;;;13.40;74.90;;;;;;5135372;28;20137;-31
2021/12/24 02:02:08;;;;;;;44.00;36.47;;;13.30;75.00;;;;;;5202877;28;20136;-31
2021/12/24 02:04:39;;;;;;;46.60;38.17;;;13.30;75.00;;;;;;5208685;28;20132;-30
2021/12/24 02:07:10;;;;;;;49.80;38.30;;;13.30;75.00;;;;;;5191473;28;20574;-31
2021/12/24 02:09:41;;;;;;;56.17;42.10;;;13.40;75.00;;;;;;5208530;28;20052;-31
2021/12/24 02:12:14;;;;;;;41.63;35.07;;;13.30;75.00;;;;;;5208784;28;20041;-31
2021/12/24 02:14:50;;;;;;;44.43;36.27;;;13.30;75.00;;;;;;5209455;28;20045;-30
2021/12/24 02:17:58;;;;;;;41.40;36.77;;;13.40;75.10;;;;;;5209784;28;20052;-31
2021/12/24 02:28:46;;;;;;;41.90;35.23;;;13.30;75.10;;;;;;5210319;28;20101;-32
2021/12/24 02:31:22;;;;;;;42.33;35.20;;;13.30;75.10;;;;;;5208969;28;20364;-32
2021/12/24 02:33:53;;;;;;;40.47;34.00;;;13.30;75.10;;;;;;5209847;28;20141;-31
2021/12/24 02:36:24;;;;;;;42.63;35.77;;;13.30;75.10;;;;;;5209004;28;20418;-30
2021/12/24 02:38:55;;;;;;;42.23;34.43;;;13.30;75.20;;;;;;5209474;28;20107;-32
2021/12/24 02:41:26;;;;;;;37.90;33.60;;;13.30;75.20;;;;;;5192137;28;20065;-31
2021/12/24 02:43:57;;;;;;;42.17;35.63;;;13.30;75.20;;;;;;5208188;28;20076;-31
2021/12/24 02:46:42;;;;;;;46.97;36.03;;;13.30;75.20;;;;;;5208160;28;20129;-31
2021/12/24 02:49:18;;;;;;;42.73;36.33;;;13.30;75.40;;;;;;5209185;28;20045;-31
2021/12/24 02:54:38;;;;;;;45.40;35.47;;;13.30;75.30;;;;;;5209690;28;20111;-31
2021/12/24 02:57:10;;;;;;;47.77;37.10;;;13.30;75.40;;;;;;5209224;28;20071;-31
2021/12/24 02:59:57;;;;;;;47.03;38.73;;;13.30;75.60;;;;;;5209533;28;20471;-31
2021/12/24 03:02:30;;;;;;;44.47;37.43;;;13.20;75.50;;;;;;5209843;28;20045;-31
2021/12/24 03:05:01;;;;;;;50.28;39.65;;;13.30;75.60;;;;;;5191510;28;20068;-31
2021/12/24 03:07:32;;;;;;;45.23;36.77;;;13.30;75.50;;;;;;5209715;28;20429;-32
2021/12/24 03:10:05;;;;;;;46.40;38.73;;;13.20;75.50;;;;;;5207981;28;20047;-31
2021/12/24 03:12:36;;;;;;;46.28;36.83;;;13.20;75.70;;;;;;5208864;28;20049;-31
2021/12/24 03:15:07;;;;;;;43.97;36.70;;;13.20;75.60;;;;;;5208869;28;20136;-30
2021/12/24 03:17:38;;;;;;;45.73;37.17;;;13.20;75.50;;;;;;5208725;28;20486;-32
2021/12/24 03:20:10;;;;;;;44.07;37.20;;;13.20;75.50;;;;;;5209366;28;20065;-31
2021/12/24 03:25:15;;;;;;;52.67;41.57;;;13.20;75.60;;;;;;5207697;28;20076;-31
2021/12/24 03:27:46;;;;;;;44.83;38.33;;;13.20;75.70;;;;;;5208821;28;20089;-31
2021/12/24 03:30:17;;;;;;;43.60;35.43;;;13.20;75.60;;;;;;5209288;28;20486;-31
2021/12/24 03:32:48;;;;;;;61.50;49.87;;;13.20;75.70;;;;;;5208203;28;20124;-30
2021/12/24 03:35:19;;;;;;;91.50;79.10;;;13.20;75.80;;;;;;5208275;28;20136;-30
2021/12/24 03:37:50;;;;;;;91.37;67.67;;;13.20;75.80;;;;;;5190301;28;20478;-30
2021/12/24 03:40:21;;;;;;;83.57;53.27;;;13.20;75.60;;;;;;5208101;28;20145;-31
2021/12/24 03:42:52;;;;;;;81.10;53.53;;;13.20;75.70;;;;;;5208788;28;20068;-32
2021/12/24 03:45:48;;;;;;;113.90;67.37;;;13.20;75.90;;;;;;5208460;28;20049;-31
2021/12/24 03:48:22;;;;;;;68.78;48.13;;;13.20;76.00;;;;;;5207838;28;20394;-31
2021/12/24 03:51:05;;;;;;;73.53;49.63;;;13.20;75.90;;;;;;5208398;28;20049;-31
2021/12/24 03:56:25;;;;;;;65.87;48.87;;;13.20;76.00;;;;;;5208346;28;20045;-31
2021/12/24 03:58:56;;;;;;;64.57;48.93;;;13.20;76.20;;;;;;5206863;28;20049;-31
2021/12/24 04:01:27;;;;;;;81.40;53.97;;;13.20;76.00;;;;;;5207838;28;20045;-31
2021/12/24 04:03:58;;;;;;;132.47;92.07;;;13.20;75.90;;;;;;5191225;28;20133;-31
2021/12/24 04:06:29;;;;;;;84.33;64.97;;;13.20;75.90;;;;;;5208087;28;20530;-31
2021/12/24 04:09:05;;;;;;;62.13;49.07;;;13.20;76.20;;;;;;5206727;28;20077;-31
2021/12/24 04:11:38;;;;;;;55.77;44.80;;;13.20;76.20;;;;;;5206480;28;20144;-31
2021/12/24 04:14:09;;;;;;;;;;;13.20;76.10;;;;;;5208223;28;20045;-31
2021/12/24 04:16:40;;;;;;;62.03;46.73;;;13.20;76.00;;;;;;5207909;28;19944;-31
2021/12/24 04:24:48;;;;;;;53.70;43.03;;;13.20;76.20;;;;;;5207614;28;20175;-31
2021/12/24 04:25:04;;;;;;;52.47;43.07;;;13.20;76.20;;;;;;5206877;28;20458;-30
2021/12/24 04:27:35;;;;;;;45.40;38.80;;;13.20;76.10;;;;;;5207216;28;20077;-32
2021/12/24 04:30:11;;;;;;;47.83;39.90;;;13.10;76.20;;;;;;5206253;28;20049;-31
2021/12/24 04:35:37;;;;;;;49.93;40.80;;;13.20;76.10;;;;;;5207510;28;20088;-30
2021/12/24 05:03:33;;;;;;;46.47;37.47;;;13.10;76.10;;;;;;5111556;29;20043;-32
2021/12/24 05:11:13;;;;;;;43.47;35.33;;;13.20;76.20;;;;;;5108640;29;20074;-32
2021/12/24 05:13:44;;;;;;;43.05;35.33;;;13.20;76.30;;;;;;5124163;28;20078;-31
2021/12/24 05:21:34;;;;;;;43.00;34.83;;;13.10;76.40;;;;;;5206263;28;20092;-32
2021/12/24 05:24:14;;;;;;;48.77;38.63;;;13.10;76.30;;;;;;5239146;28;20048;-31
2021/12/24 05:26:50;;;;;;;49.23;38.40;;;13.10;76.90;;;;;;5248049;28;20052;-31
2021/12/24 05:29:22;;;;;;;48.60;37.57;;;13.10;76.50;;;;;;5248458;28;20124;-30
2021/12/24 05:31:52;;;;;;;44.53;37.20;;;13.10;76.50;;;;;;5248256;28;20186;-32
2021/12/24 05:34:24;;;;;;;42.97;36.30;;;13.10;76.40;;;;;;5248220;28;20079;-31
2021/12/24 05:36:54;;;;;;;44.40;36.30;;;13.10;76.40;;;;;;5230023;28;20072;-30
2021/12/24 05:39:25;;;;;;;43.43;36.87;;;13.10;76.60;;;;;;5248309;28;20036;-31
2021/12/24 05:41:56;;;;;;;56.30;43.30;;;13.00;76.70;;;;;;5248389;28;20432;-30
2021/12/24 05:44:27;;;;;;;48.67;39.67;;;13.00;76.90;;;;;;5248275;28;20068;-31
2021/12/24 05:47:00;;;;;;;45.20;36.90;;;13.00;76.90;;;;;;5248282;28;20052;-31
2021/12/24 05:49:31;;;;;;;45.83;38.63;;;13.10;76.90;;;;;;5215550;28;20123;-31
2021/12/24 05:52:03;;;;;;;42.80;36.20;;;13.10;76.90;;;;;;5210190;28;20048;-30
2021/12/24 05:54:34;;;;;;;42.60;36.87;;;13.10;76.80;;;;;;5226638;28;20186;-32
2021/12/24 05:57:05;;;;;;;42.03;35.80;;;13.10;76.80;;;;;;5228433;28;20472;-30
2021/12/24 05:59:36;;;;;;;39.03;32.63;;;13.20;76.90;;;;;;5231147;28;20056;-30
2021/12/24 06:02:07;;;;;;;40.60;35.47;;;13.20;76.80;;;;;;5231110;28;20053;-31
2021/12/24 06:04:38;;;;;;;40.20;35.77;;;13.20;76.80;;;;;;5230920;28;20131;-30
2021/12/24 06:07:09;;;;;;;36.10;31.43;;;13.20;76.70;;;;;;5197147;28;20442;-31
2021/12/24 06:09:40;;;;;;;39.03;33.20;;;13.20;76.60;;;;;;5213017;28;20064;-31
2021/12/24 06:12:11;;;;;;;38.50;33.77;;;13.20;76.60;;;;;;5231020;28;20072;-32
2021/12/24 06:14:44;;;;;;;35.27;31.40;;;13.20;76.60;;;;;;5231071;28;20049;-32
2021/12/24 06:17:17;;;;;;;36.73;31.63;;;13.20;76.50;;;;;;5230965;28;20040;-31
2021/12/24 06:19:49;;;;;;;35.30;29.73;;;13.20;76.40;;;;;;5230742;28;20099;-30
2021/12/24 06:22:20;;;;;;;35.60;31.27;;;13.30;76.50;;;;;;5212995;28;20044;-30
2021/12/24 06:24:51;;;;;;;36.23;30.63;;;13.30;76.50;;;;;;5230652;28;20492;-30
2021/12/24 06:27:22;;;;;;;35.30;30.33;;;13.30;76.40;;;;;;5230772;28;20060;-31
2021/12/24 06:29:53;;;;;;;35.13;30.47;;;13.30;76.40;;;;;;5230280;28;20049;-31
2021/12/24 06:32:24;;;;;;;34.13;30.33;;;13.30;76.40;;;;;;5230480;28;20041;-30
2021/12/24 06:34:55;;;;;;;37.30;32.63;;;13.30;76.40;;;;;;5212415;28;20125;-32
2021/12/24 06:37:26;;;;;;;39.07;34.77;;;13.30;76.30;;;;;;5222013;28;20120;-31
2021/12/24 06:39:57;;;;;;;74.67;64.80;;;13.30;76.40;;;;;;5251011;28;20044;-30
2021/12/24 06:42:28;;;;;;;231.57;202.30;;;13.30;76.40;;;;;;5246129;28;20106;-30
2021/12/24 06:45:01;;;;;;;84.83;61.27;;;13.30;76.40;;;;;;5229957;28;20116;-31
2021/12/24 06:47:32;;;;;;;54.90;39.67;;;13.30;76.60;;;;;;5229850;28;20041;-30
2021/12/24 06:50:06;;;;;;;47.70;36.15;;;13.30;76.70;;;;;;5229967;28;20045;-29
2021/12/24 06:52:36;;;;;;;59.40;41.67;;;13.30;76.40;;;;;;5229397;28;20040;-30
2021/12/24 06:55:10;;;;;;;82.63;50.33;;;13.40;76.20;;;;;;5203237;28;20048;-30
2021/12/24 07:04:54;;;;;;;103.17;54.73;;;13.90;75.50;;;;;;5218466;28;20415;-30
2021/12/24 07:07:26;;;;;;;100.43;55.87;;;14.00;75.30;;;;;;5211117;28;20064;-29
2021/12/24 07:09:57;;;;;;;73.50;50.30;;;14.00;74.70;;;;;;5207486;28;20040;-30
2021/12/24 07:12:28;;;;;;;78.43;46.30;;;12.10;77.60;;;;;;5216613;28;20525;-30
2021/12/24 07:14:59;;;;;;;86.27;49.03;;;10.90;80.70;;;;;;5201932;28;20045;-29
2021/12/24 07:17:30;;;;;;;;;;;10.20;82.50;;;;;;5221230;28;20397;-29
2021/12/24 07:20:02;;;;;;;;;;;9.80;83.60;;;;;;5222395;28;19924;-29
2021/12/24 07:22:33;;;;;;;72.87;43.37;;;9.60;84.30;;;;;;5195927;28;19946;-30
2021/12/24 07:25:06;;;;;;;119.50;75.17;;;9.40;84.90;;;;;;5218633;28;20057;-29
2021/12/24 07:27:37;;;;;;;156.07;116.85;;;9.30;85.20;;;;;;5208318;28;20064;-29
2021/12/24 07:30:10;;;;;;;103.77;55.67;;;9.30;85.40;;;;;;5213895;28;20098;-29
2021/12/24 07:32:41;;;;;;;88.28;52.20;;;9.30;85.80;;;;;;5217125;28;20052;-30
2021/12/24 07:35:12;;;;;;;66.10;41.90;;;9.20;85.90;;;;;;5224069;28;20518;-29
2021/12/24 07:37:43;;;;;;;72.30;46.83;;;9.30;86.00;;;;;;5222749;28;20067;-28
2021/12/24 07:40:16;;;;;;;69.40;43.33;;;9.30;85.70;;;;;;5228934;28;20499;-30
2021/12/24 07:42:47;;;;;;;105.10;55.87;;;9.30;85.70;;;;;;5214032;28;20806;-30
2021/12/24 07:45:19;;;;;;;86.77;52.13;;;9.30;85.80;;;;;;5249826;28;20053;-30
2021/12/24 07:48:06;;;;;;;84.67;49.13;;;9.20;86.10;;;;;;5249711;28;20109;-29
2021/12/24 07:53:11;;;;;;;114.57;65.17;;;9.10;86.70;;;;;;5214665;28;20405;-29
2021/12/24 07:55:43;;;;;;;124.13;75.82;;;9.00;86.80;;;;;;5249052;28;20048;-28
2021/12/24 07:58:15;;;;;;;140.77;83.90;;;9.00;86.90;;;;;;5249719;28;20045;-30
2021/12/24 08:00:46;;;;;;;139.70;81.27;;;8.90;87.20;;;;;;5249343;28;20473;-29
2021/12/24 08:03:17;;;;;;;118.43;70.23;;;8.90;87.70;;;;;;5215116;28;20450;-31
2021/12/24 08:05:49;;;;;;;124.57;72.63;;;8.80;87.70;;;;;;5249411;28;20512;-31
2021/12/24 08:08:20;;;;;;;137.37;82.57;;;8.80;87.70;;;;;;5231722;28;20064;-29
2021/12/24 08:10:51;;;;;;;104.47;59.33;;;8.70;87.80;;;;;;5231270;28;20051;-30
2021/12/24 08:13:22;;;;;;;129.43;66.80;;;8.70;88.00;;;;;;5231445;28;20056;-29
2021/12/24 08:15:54;;;;;;;212.93;118.00;;;8.70;88.10;;;;;;5231133;28;20105;-31
2021/12/24 08:18:25;;;;;;;84.93;51.47;;;8.60;88.00;;;;;;5231241;28;20044;-29
2021/12/24 08:20:56;;;;;;;101.40;58.33;;;8.60;88.20;;;;;;5230849;28;20371;-31
2021/12/24 08:23:27;;;;;;;69.30;45.83;;;8.60;88.20;;;;;;5231870;28;20048;-29
2021/12/24 08:25:59;;;;;;;81.77;47.97;;;8.60;88.40;;;;;;5230901;28;20074;-30
2021/12/24 08:28:30;;;;;;;71.30;44.13;;;8.50;88.20;;;;;;5214584;28;20504;-29
2021/12/24 08:31:01;;;;;;;86.97;51.40;;;8.50;88.60;;;;;;5248876;28;20526;-31
2021/12/24 08:33:35;;;;;;;66.03;43.63;;;8.50;88.60;;;;;;5248908;28;20064;-32
2021/12/24 08:36:07;;;;;;;59.20;39.30;;;8.40;88.60;;;;;;5248779;28;20087;-29
2021/12/24 08:38:39;;;;;;;60.27;41.90;;;8.40;88.70;;;;;;5231042;28;20512;-32
2021/12/24 08:41:10;;;;;;;61.03;40.83;;;8.40;89.20;;;;;;5214674;28;20045;-30
2021/12/24 08:43:41;;;;;;;100.60;65.13;;;8.40;89.30;;;;;;5248712;28;20048;-31
2021/12/24 08:46:12;;;;;;;128.23;80.23;;;8.40;89.60;;;;;;5231103;28;20115;-29
2021/12/24 08:48:43;;;;;;;94.57;60.33;;;8.30;89.70;;;;;;5248736;28;20525;-30
2021/12/24 08:51:15;;;;;;;75.67;49.97;;;8.30;90.00;;;;;;5230967;28;20036;-29
2021/12/24 08:53:45;;;;;;;57.57;39.27;;;8.30;89.60;;;;;;5231563;28;20041;-32
2021/12/24 08:56:16;;;;;;;75.13;50.17;;;8.30;89.60;;;;;;5248887;28;20115;-32
2021/12/24 08:58:47;;;;;;;59.53;41.17;;;8.20;90.00;;;;;;5248930;28;20123;-32
2021/12/24 09:01:18;;;;;;;61.43;43.83;;;8.20;90.00;;;;;;5230653;28;20066;-31
2021/12/24 09:03:49;;;;;;;71.37;51.87;;;8.20;89.70;;;;;;5197276;28;20057;-30
2021/12/24 09:06:20;;;;;;;66.37;47.17;;;8.20;90.00;;;;;;5197280;28;20531;-32
2021/12/24 09:08:51;;;;;;;108.97;70.40;;;8.20;89.80;;;;;;5230662;28;20162;-32
2021/12/24 09:11:22;;;;;;;141.67;84.10;;;8.20;90.00;;;;;;5230646;28;20123;-30
2021/12/24 09:13:53;;;;;;;79.70;49.53;;;8.20;90.20;;;;;;5230858;28;20120;-29
2021/12/24 09:16:24;;;;;;;67.77;47.33;;;8.10;90.10;;;;;;5230577;28;20044;-32
2021/12/24 09:19:02;;;;;;;54.23;37.57;;;8.20;90.10;;;;;;5230572;28;20055;-31
2021/12/24 09:21:33;;;;;;;61.50;43.40;;;8.10;90.10;;;;;;5230662;28;20067;-32
2021/12/24 09:24:07;;;;;;;70.23;48.20;;;8.20;90.30;;;;;;5247709;28;20094;-30
2021/12/24 09:26:38;;;;;;;63.00;43.07;;;8.10;90.40;;;;;;5230532;28;20127;-30
2021/12/24 09:29:09;;;;;;;54.23;38.73;;;8.10;90.30;;;;;;5248416;28;20121;-32
2021/12/24 09:31:41;;;;;;;62.17;44.37;;;8.20;90.30;;;;;;5233129;28;20067;-29
2021/12/24 09:34:13;;;;;;;53.60;37.33;;;8.20;90.70;;;;;;5217993;28;20041;-32
2021/12/24 09:36:44;;;;;;;61.47;42.10;;;8.20;90.50;;;;;;5252340;28;20115;-30
2021/12/24 09:39:15;;;;;;;64.13;43.30;;;8.10;90.40;;;;;;5234373;28;20446;-32
2021/12/24 09:41:46;;;;;;;65.23;44.50;;;8.10;90.40;;;;;;5234383;28;20090;-32
2021/12/24 09:44:17;;;;;;;64.47;44.87;;;8.10;90.50;;;;;;5234434;28;20120;-30
2021/12/24 09:46:49;;;;;;;63.90;45.67;;;8.10;90.50;;;;;;5234269;28;20053;-30
2021/12/24 09:49:20;;;;;;;83.03;50.97;;;8.10;90.70;;;;;;5234785;28;20063;-30
2021/12/24 09:51:52;;;;;;;79.47;44.80;;;8.10;90.70;;;;;;5202359;28;20045;-32
2021/12/24 09:54:24;;;;;;;72.77;43.13;;;8.40;90.80;;;;;;5211273;28;20045;-30
2021/12/24 09:56:56;;;;;;;79.03;47.03;;;8.80;90.20;;;;;;5229020;28;20457;-33
2021/12/24 09:59:27;;;;;;;87.57;51.63;;;9.30;89.40;;;;;;5210907;28;20037;-32
2021/12/24 10:01:59;;;;;;;80.57;53.43;;;9.80;88.40;;;;;;5195015;28;20048;-31
2021/12/24 10:04:32;;;;;;;69.83;48.43;;;10.10;87.30;;;;;;5228780;28;20124;-31
2021/12/24 10:07:05;;;;;;;74.03;48.90;;;10.40;86.40;;;;;;5210807;28;20463;-32
2021/12/24 10:09:43;;;;;;;58.28;41.05;;;10.60;85.70;;;;;;5228590;28;20048;-31
2021/12/24 10:12:17;;;;;;;48.23;37.27;;;10.80;85.20;;;;;;5210449;28;20051;-33
2021/12/24 10:14:50;;;;;;;58.17;41.80;;;11.00;84.70;;;;;;5228582;28;20049;-30
2021/12/24 10:17:22;;;;;;;56.67;41.07;;;11.10;84.40;;;;;;5216076;28;20052;-33
2021/12/24 10:19:56;;;;;;;54.05;38.33;;;11.30;83.70;;;;;;5227371;28;20112;-31
2021/12/24 10:22:27;;;;;;;66.47;45.03;;;11.40;83.50;;;;;;5228158;28;20037;-31
2021/12/24 10:25:05;;;;;;;76.83;53.90;;;11.50;83.10;;;;;;5210653;28;20041;-32
2021/12/24 10:27:38;;;;;;;76.57;56.87;;;11.60;82.80;;;;;;5206701;28;20046;-30
2021/12/24 10:30:21;;;;;;;75.93;49.27;;;11.70;82.60;;;;;;5206569;28;20076;-32
2021/12/24 10:32:55;;;;;;;;;;;11.70;82.40;;;;;;5208112;28;20124;-30
2021/12/24 10:35:27;;;;;;;;;;;11.80;82.30;;;;;;5208318;28;19956;-30
2021/12/24 10:38:18;;;;;;;68.50;48.37;;;11.80;82.30;;;;;;5208376;28;19971;-31
2021/12/24 10:40:49;;;;;;;64.90;52.00;;;11.90;82.10;;;;;;5192049;28;20538;-31
2021/12/24 10:43:28;;;;;;;116.47;78.63;;;12.00;82.00;;;;;;5208815;28;20064;-29
2021/12/24 10:46:19;;;;;;;93.67;61.60;;;12.00;81.70;;;;;;5191727;28;20042;-32
2021/12/24 10:49:02;;;;;;;60.27;43.67;;;12.10;81.60;;;;;;5191656;28;20439;-30
2021/12/24 10:52:11;;;;;;;67.50;48.25;;;12.20;81.70;;;;;;5209191;28;20059;-30
2021/12/24 10:54:52;;;;;;;59.83;43.33;;;12.20;81.50;;;;;;5186400;28;20487;-32
2021/12/24 10:57:28;;;;;;;73.13;51.87;;;12.20;81.40;;;;;;5191591;28;20487;-31
2021/12/24 11:00:27;;;;;;;69.37;53.07;;;12.30;81.50;;;;;;5208870;28;20049;-33
2021/12/24 11:03:03;;;;;;;59.73;46.43;;;12.30;81.50;;;;;;5106715;29;20213;-32
2021/12/24 11:05:35;;;;;;;55.33;42.63;;;12.40;81.40;;;;;;5105919;29;20079;-31
2021/12/24 11:08:17;;;;;;;50.77;39.57;;;12.40;81.40;;;;;;5106424;29;20051;-30
2021/12/24 11:10:56;;;;;;;51.30;38.87;;;12.40;81.30;;;;;;5075399;29;20060;-32
2021/12/24 11:13:33;;;;;;;72.27;51.83;;;12.50;81.60;;;;;;5090671;29;20048;-32
2021/12/24 11:16:06;;;;;;;63.37;47.80;;;12.50;81.60;;;;;;5074871;29;20140;-33
2021/12/24 11:18:43;;;;;;;62.65;45.33;;;12.50;81.40;;;;;;5090662;29;20063;-33
2021/12/24 11:21:21;;;;;;;107.33;61.43;;;12.50;81.40;;;;;;5106210;29;20450;-33
2021/12/24 11:23:53;;;;;;;90.63;53.87;;;12.50;81.50;;;;;;5090448;29;20418;-32
2021/12/24 11:26:27;;;;;;;106.77;63.20;;;12.50;81.40;;;;;;5106079;28;20051;-32
2021/12/24 11:28:58;;;;;;;113.07;66.10;;;12.50;81.40;;;;;;5110152;29;20134;-30
2021/12/24 11:31:30;;;;;;;98.70;60.30;;;12.50;81.40;;;;;;5125721;29;20454;-32
2021/12/24 11:34:01;;;;;;;95.90;62.43;;;12.60;81.40;;;;;;5126243;29;20075;-30
2021/12/24 11:36:33;;;;;;;92.57;58.17;;;12.60;81.40;;;;;;5109885;29;20450;-30
2021/12/24 11:39:06;;;;;;;199.70;132.70;;;12.60;81.40;;;;;;5152069;28;20431;-33
2021/12/24 11:41:37;;;;;;;272.08;192.48;;;12.60;81.40;;;;;;5178771;28;21011;-33
2021/12/24 11:44:08;;;;;;;202.03;111.10;;;12.60;81.40;;;;;;5194907;28;20045;-32
2021/12/24 11:46:41;;;;;;;142.20;81.87;;;12.60;81.40;;;;;;5211607;28;20384;-30
2021/12/24 11:49:12;;;;;;;113.78;65.72;;;12.60;81.40;;;;;;5229165;28;20087;-32
2021/12/24 11:51:44;;;;;;;121.27;65.97;;;12.60;81.30;;;;;;5211275;28;20045;-33
2021/12/24 11:54:15;;;;;;;77.63;53.83;;;12.70;81.50;;;;;;5227946;28;20045;-33
2021/12/24 11:56:49;;;;;;;117.73;69.57;;;12.60;81.60;;;;;;5194618;28;20126;-30
2021/12/24 11:59:41;;;;;;;165.47;106.67;;;12.70;81.80;;;;;;5211616;28;20606;-32
2021/12/24 12:02:44;;;;;;;142.90;112.10;;;12.70;81.70;;;;;;5228681;28;20474;-32
2021/12/24 12:05:17;;;;;;;165.70;90.85;;;12.60;81.70;;;;;;5185728;28;20535;-30
2021/12/24 12:07:49;;;;;;;152.93;86.00;;;12.70;81.80;;;;;;5185457;28;20061;-31
2021/12/24 12:10:52;;;;;;;148.77;95.93;;;12.70;81.70;;;;;;5153062;28;20073;-33
2021/12/24 12:13:41;;;;;;;218.67;164.80;;;12.70;81.40;;;;;;5185035;28;20137;-32
2021/12/24 12:16:22;;;;;;;343.60;253.93;;;12.70;81.30;;;;;;5185253;28;20073;-32
2021/12/24 12:22:47;;;;;;;170.77;103.90;;;12.70;81.30;;;;;;5085405;29;20148;-33
2021/12/24 12:25:36;;;;;;;92.87;62.07;;;12.70;81.40;;;;;;5085234;29;20060;-31
2021/12/24 12:28:57;;;;;;;94.53;63.27;;;12.70;81.40;;;;;;5084716;29;20470;-32
2021/12/24 12:31:28;;;;;;;78.53;54.47;;;12.70;81.40;;;;;;5085052;29;20193;-31
2021/12/24 13:04:10;;;;;;;83.60;55.27;;;12.80;81.90;;;;;;5227154;28;20040;-32
2021/12/24 13:07:07;;;;;;;70.97;48.70;;;12.80;81.80;;;;;;5351790;23;20068;-32
2021/12/24 13:09:37;;;;;;;63.27;48.07;;;12.90;81.60;;;;;;5248136;28;20477;-32
2021/12/24 13:12:09;;;;;;;76.10;55.50;;;12.90;81.60;;;;;;5248611;28;20550;-32
2021/12/24 13:14:40;;;;;;;79.13;57.80;;;13.00;81.50;;;;;;5248115;28;20067;-31
2021/12/24 13:22:28;;;;;;;74.33;55.80;;;13.00;81.10;;;;;;5248323;28;20041;-32
2021/12/24 13:25:16;;;;;;;75.37;55.73;;;13.10;81.10;;;;;;5231509;28;20050;-30
2021/12/24 13:27:52;;;;;;;74.60;55.27;;;13.10;81.10;;;;;;5248166;28;20070;-30
2021/12/24 13:30:30;;;;;;;69.33;54.10;;;13.10;81.00;;;;;;5197258;28;20052;-30
2021/12/24 13:33:07;;;;;;;68.17;52.67;;;13.10;80.90;;;;;;5250539;28;20032;-32
2021/12/24 13:35:45;;;;;;;78.03;57.63;;;13.20;81.10;;;;;;5258709;28;20089;-30
2021/12/24 13:38:26;;;;;;;110.47;73.90;;;13.10;81.40;;;;;;5234850;28;20417;-31
2021/12/24 13:40:57;;;;;;;91.67;66.93;;;13.10;81.70;;;;;;5227533;28;20517;-30
2021/12/24 13:43:28;;;;;;;81.53;60.97;;;13.10;81.70;;;;;;5207893;28;20521;-31
2021/12/24 13:46:05;;;;;;;84.93;61.70;;;13.20;81.70;;;;;;5224415;28;20061;-31
2021/12/24 13:49:11;;;;;;;98.97;68.40;;;13.20;81.50;;;;;;5225293;28;20065;-32
2021/12/24 13:54:33;;;;;;;115.50;80.97;;;13.20;81.40;;;;;;5237623;28;20044;-31
2021/12/24 13:57:05;;;;;;;102.40;73.13;;;13.20;81.40;;;;;;5245995;28;20052;-33
2021/12/24 13:59:36;;;;;;;84.10;62.97;;;13.20;81.50;;;;;;5245639;28;20437;-32
2021/12/24 14:02:09;;;;;;;159.73;117.03;;;13.20;81.40;;;;;;5246257;28;20052;-32
2021/12/24 14:04:43;;;;;;;136.27;97.30;;;13.20;81.40;;;;;;5244870;28;20056;-30
2021/12/24 14:07:13;;;;;;;137.80;99.73;;;13.20;81.50;;;;;;5246690;28;20086;-32
2021/12/24 14:09:45;;;;;;;104.83;79.83;;;13.20;81.50;;;;;;5284361;28;20051;-33
2021/12/24 14:12:15;;;;;;;93.80;72.03;;;13.20;81.40;;;;;;5289549;28;20044;-32
2021/12/24 14:14:55;;;;;;;196.43;153.07;;;13.20;81.50;;;;;;5253926;28;20083;-33
2021/12/24 14:22:32;;;;;;;121.10;91.33;;;13.20;82.00;;;;;;5293119;28;20047;-31
2021/12/24 14:25:11;;;;;;;104.90;79.23;;;13.20;82.10;;;;;;5293438;28;20442;-31
2021/12/24 14:27:48;;;;;;;117.10;84.87;;;13.20;81.90;;;;;;5275244;28;20116;-32
2021/12/24 14:30:20;;;;;;;128.40;88.33;;;13.20;81.70;;;;;;5293092;28;20507;-32
2021/12/24 14:32:51;;;;;;;100.68;69.60;;;13.20;81.70;;;;;;5293098;28;20509;-31
2021/12/24 14:35:27;;;;;;;131.33;81.73;;;13.20;81.60;;;;;;5293185;28;20052;-31
2021/12/24 14:38:10;;;;;;;107.43;72.17;;;13.20;81.90;;;;;;5292470;28;20480;-31
2021/12/24 14:40:41;;;;;;;108.43;73.17;;;13.20;82.00;;;;;;5293129;28;20101;-31
2021/12/24 14:43:17;;;;;;;107.83;70.83;;;13.20;82.10;;;;;;5292258;28;20044;-31
2021/12/24 14:45:49;;;;;;;87.53;61.57;;;13.20;82.10;;;;;;5293293;28;20044;-32
2021/12/24 14:48:26;;;;;;;84.67;65.93;;;13.20;82.20;;;;;;5273472;28;20036;-31
2021/12/24 14:51:03;;;;;;;98.07;87.10;;;13.20;82.20;;;;;;5292372;28;20040;-31
2021/12/24 14:53:41;;;;;;;83.00;74.30;;;13.20;82.20;;;;;;5292700;28;20044;-31
2021/12/24 14:56:17;;;;;;;105.80;70.77;;;13.20;82.30;;;;;;5274774;28;20506;-31
2021/12/24 14:59:02;;;;;;;92.47;59.97;;;13.20;82.30;;;;;;5293377;28;20047;-32
2021/12/24 15:01:42;;;;;;;51.60;36.30;;;13.10;82.20;;;;;;5292909;28;20416;-32
2021/12/24 15:04:13;;;;;;;60.43;43.13;;;13.10;82.30;;;;;;5275557;28;20377;-30
2021/12/24 15:06:51;;;;;;;59.50;49.30;;;13.10;82.30;;;;;;5291737;28;20039;-31
2021/12/24 15:09:28;;;;;;;44.33;38.03;;;13.20;82.30;;;;;;5250109;28;20548;-31
2021/12/24 15:11:59;;;;;;;55.73;41.27;;;13.20;82.40;;;;;;5271175;28;20483;-31
2021/12/24 15:14:30;;;;;;;73.33;48.60;;;13.10;82.30;;;;;;5251669;28;20052;-31
2021/12/24 15:17:03;;;;;;;57.50;38.23;;;13.10;82.30;;;;;;5270860;28;20389;-31
2021/12/24 15:19:33;;;;;;;57.23;37.77;;;13.10;82.30;;;;;;5252637;28;20098;-31
2021/12/24 15:22:05;;;;;;;64.83;41.37;;;13.10;82.30;;;;;;5269865;28;20044;-30
2021/12/24 15:24:36;;;;;;;68.80;41.07;;;13.10;82.40;;;;;;5270761;28;20237;-31
2021/12/24 15:27:07;;;;;;;128.80;79.17;;;13.10;82.30;;;;;;5263498;28;20123;-33
2021/12/24 15:29:42;;;;;;;63.17;42.57;;;13.10;82.40;;;;;;5255836;28;20527;-31
2021/12/24 15:32:13;;;;;;;44.40;31.63;;;13.00;82.30;;;;;;5247377;28;20040;-32